sensor_id;sensor_type;location;lat;lon;timestamp;P1;durP1;ratioP1;P2;durP2;ratioP2
79487;SDS011;68949;53.176;18.088;2023-04-05T00:02:17;12.20;;;3.90;;
79487;SDS011;68949;53.176;18.088;2023-04-05T00:04:46;14.10;;;4.50;;
79487;SDS011;68949;53.176;18.088;2023-04-05T00:07:17;10.70;;;3.80;;
79487;SDS011;68949;53.176;18.088;2023-04-05T00:09:47;11.30;;;4.10;;
79487;SDS011;68949;53.176;18.088;2023-04-05T00:12:15;12.20;;;4.10;;
79487;SDS011;68949;53.176;18.088;2023-04-05T00:14:41;9.20;;;3.50;;
79487;SDS011;68949;53.176;18.088;2023-04-05T00:17:08;13.20;;;4.30;;
79487;SDS011;68949;53.176;18.088;2023-04-05T00:19:35;13.00;;;4.60;;
79487;SDS011;68949;53.176;18.088;2023-04-05T00:22:03;16.00;;;4.80;;
79487;SDS011;68949;53.176;18.088;2023-04-05T00:24:30;16.30;;;5.50;;
79487;SDS011;68949;53.176;18.088;2023-04-05T00:26:59;14.70;;;4.90;;
79487;SDS011;68949;53.176;18.088;2023-04-05T00:29:26;10.70;;;4.10;;
79487;SDS011;68949;53.176;18.088;2023-04-05T00:31:54;11.80;;;4.50;;
79487;SDS011;68949;53.176;18.088;2023-04-05T00:34:21;13.70;;;4.70;;
79487;SDS011;68949;53.176;18.088;2023-04-05T00:36:48;12.60;;;4.30;;
79487;SDS011;68949;53.176;18.088;2023-04-05T00:39:14;16.60;;;5.90;;
79487;SDS011;68949;53.176;18.088;2023-04-05T00:41:41;12.70;;;4.90;;
79487;SDS011;68949;53.176;18.088;2023-04-05T00:44:09;14.30;;;4.80;;
79487;SDS011;68949;53.176;18.088;2023-04-05T00:46:38;15.60;;;5.50;;
79487;SDS011;68949;53.176;18.088;2023-04-05T00:49:04;19.40;;;7.80;;
79487;SDS011;68949;53.176;18.088;2023-04-05T00:51:32;29.10;;;9.30;;
79487;SDS011;68949;53.176;18.088;2023-04-05T00:54:00;22.40;;;8.00;;
79487;SDS011;68949;53.176;18.088;2023-04-05T00:56:28;17.70;;;7.10;;
79487;SDS011;68949;53.176;18.088;2023-04-05T00:58:55;25.00;;;7.90;;
79487;SDS011;68949;53.176;18.088;2023-04-05T01:01:24;18.00;;;6.90;;
79487;SDS011;68949;53.176;18.088;2023-04-05T01:03:57;20.70;;;7.10;;
79487;SDS011;68949;53.176;18.088;2023-04-05T01:07:06;20.80;;;6.50;;
79487;SDS011;68949;53.176;18.088;2023-04-05T01:09:45;18.20;;;6.90;;
79487;SDS011;68949;53.176;18.088;2023-04-05T01:12:20;18.90;;;6.70;;
79487;SDS011;68949;53.176;18.088;2023-04-05T01:14:52;20.00;;;7.30;;
79487;SDS011;68949;53.176;18.088;2023-04-05T01:17:24;15.90;;;5.70;;
79487;SDS011;68949;53.176;18.088;2023-04-05T01:19:58;19.80;;;7.10;;
79487;SDS011;68949;53.176;18.088;2023-04-05T01:28:58;16.60;;;5.50;;
79487;SDS011;68949;53.176;18.088;2023-04-05T01:31:48;16.50;;;5.80;;
79487;SDS011;68949;53.176;18.088;2023-04-05T01:34:33;15.40;;;5.60;;
79487;SDS011;68949;53.176;18.088;2023-04-05T01:37:07;17.10;;;5.20;;
79487;SDS011;68949;53.176;18.088;2023-04-05T01:39:38;15.80;;;5.80;;
79487;SDS011;68949;53.176;18.088;2023-04-05T01:42:06;21.00;;;6.00;;
79487;SDS011;68949;53.176;18.088;2023-04-05T01:44:33;15.40;;;5.10;;
79487;SDS011;68949;53.176;18.088;2023-04-05T01:47:00;17.90;;;6.60;;
79487;SDS011;68949;53.176;18.088;2023-04-05T01:49:27;23.20;;;6.80;;
79487;SDS011;68949;53.176;18.088;2023-04-05T01:51:53;18.90;;;6.50;;
79487;SDS011;68949;53.176;18.088;2023-04-05T01:54:20;16.50;;;6.10;;
79487;SDS011;68949;53.176;18.088;2023-04-05T01:56:47;20.00;;;7.20;;
79487;SDS011;68949;53.176;18.088;2023-04-05T01:59:14;19.70;;;7.60;;
79487;SDS011;68949;53.176;18.088;2023-04-05T02:01:40;17.60;;;6.40;;
79487;SDS011;68949;53.176;18.088;2023-04-05T02:04:07;15.10;;;5.50;;
79487;SDS011;68949;53.176;18.088;2023-04-05T02:06:33;13.70;;;5.50;;
79487;SDS011;68949;53.176;18.088;2023-04-05T02:09:01;13.70;;;5.00;;
79487;SDS011;68949;53.176;18.088;2023-04-05T02:11:28;14.10;;;4.80;;
79487;SDS011;68949;53.176;18.088;2023-04-05T02:13:57;17.40;;;5.30;;
79487;SDS011;68949;53.176;18.088;2023-04-05T02:16:24;11.20;;;4.30;;
79487;SDS011;68949;53.176;18.088;2023-04-05T02:18:54;14.30;;;4.10;;
79487;SDS011;68949;53.176;18.088;2023-04-05T02:21:23;11.50;;;3.60;;
79487;SDS011;68949;53.176;18.088;2023-04-05T02:23:52;12.40;;;4.60;;
79487;SDS011;68949;53.176;18.088;2023-04-05T02:26:19;13.90;;;5.20;;
79487;SDS011;68949;53.176;18.088;2023-04-05T02:28:46;11.20;;;4.20;;
79487;SDS011;68949;53.176;18.088;2023-04-05T02:31:13;13.30;;;4.20;;
79487;SDS011;68949;53.176;18.088;2023-04-05T02:33:41;16.20;;;5.20;;
79487;SDS011;68949;53.176;18.088;2023-04-05T02:36:11;12.00;;;4.40;;
79487;SDS011;68949;53.176;18.088;2023-04-05T02:38:41;16.00;;;5.40;;
79487;SDS011;68949;53.176;18.088;2023-04-05T02:41:09;13.30;;;5.20;;
79487;SDS011;68949;53.176;18.088;2023-04-05T02:43:38;19.10;;;5.00;;
79487;SDS011;68949;53.176;18.088;2023-04-05T02:46:05;16.60;;;6.00;;
79487;SDS011;68949;53.176;18.088;2023-04-05T02:48:32;14.60;;;4.60;;
79487;SDS011;68949;53.176;18.088;2023-04-05T02:50:59;15.60;;;5.90;;
79487;SDS011;68949;53.176;18.088;2023-04-05T02:53:26;14.00;;;4.80;;
79487;SDS011;68949;53.176;18.088;2023-04-05T02:55:57;11.20;;;3.60;;
79487;SDS011;68949;53.176;18.088;2023-04-05T02:58:25;14.30;;;5.00;;
79487;SDS011;68949;53.176;18.088;2023-04-05T03:00:52;15.80;;;5.90;;
79487;SDS011;68949;53.176;18.088;2023-04-05T03:03:26;17.00;;;6.60;;
79487;SDS011;68949;53.176;18.088;2023-04-05T03:05:59;18.40;;;6.90;;
79487;SDS011;68949;53.176;18.088;2023-04-05T03:08:37;16.10;;;5.80;;
79487;SDS011;68949;53.176;18.088;2023-04-05T03:11:05;16.90;;;5.40;;
79487;SDS011;68949;53.176;18.088;2023-04-05T03:13:32;17.30;;;5.50;;
79487;SDS011;68949;53.176;18.088;2023-04-05T03:16:00;15.20;;;4.60;;
79487;SDS011;68949;53.176;18.088;2023-04-05T03:18:28;16.80;;;6.20;;
79487;SDS011;68949;53.176;18.088;2023-04-05T03:20:57;20.40;;;6.80;;
79487;SDS011;68949;53.176;18.088;2023-04-05T03:23:29;16.00;;;6.10;;
79487;SDS011;68949;53.176;18.088;2023-04-05T03:25:59;18.50;;;6.00;;
79487;SDS011;68949;53.176;18.088;2023-04-05T03:28:29;17.50;;;5.30;;
79487;SDS011;68949;53.176;18.088;2023-04-05T03:31:01;15.20;;;5.00;;
79487;SDS011;68949;53.176;18.088;2023-04-05T03:33:28;12.60;;;4.90;;
79487;SDS011;68949;53.176;18.088;2023-04-05T03:35:55;14.90;;;4.70;;
79487;SDS011;68949;53.176;18.088;2023-04-05T03:38:21;14.40;;;4.50;;
79487;SDS011;68949;53.176;18.088;2023-04-05T03:41:03;14.80;;;5.10;;
79487;SDS011;68949;53.176;18.088;2023-04-05T03:43:29;14.40;;;5.00;;
79487;SDS011;68949;53.176;18.088;2023-04-05T03:45:56;12.80;;;4.50;;
79487;SDS011;68949;53.176;18.088;2023-04-05T03:48:25;15.00;;;4.60;;
79487;SDS011;68949;53.176;18.088;2023-04-05T03:50:52;11.80;;;4.20;;
79487;SDS011;68949;53.176;18.088;2023-04-05T03:53:20;14.10;;;4.70;;
79487;SDS011;68949;53.176;18.088;2023-04-05T03:55:50;14.00;;;4.70;;
79487;SDS011;68949;53.176;18.088;2023-04-05T03:58:20;15.80;;;5.10;;
79487;SDS011;68949;53.176;18.088;2023-04-05T04:00:47;15.80;;;5.30;;
79487;SDS011;68949;53.176;18.088;2023-04-05T04:03:17;12.30;;;4.20;;
79487;SDS011;68949;53.176;18.088;2023-04-05T04:05:47;11.80;;;4.30;;
79487;SDS011;68949;53.176;18.088;2023-04-05T04:08:13;10.30;;;3.60;;
79487;SDS011;68949;53.176;18.088;2023-04-05T04:10:40;13.30;;;4.40;;
79487;SDS011;68949;53.176;18.088;2023-04-05T04:13:25;14.20;;;4.00;;
79487;SDS011;68949;53.176;18.088;2023-04-05T04:16:10;12.00;;;3.90;;
79487;SDS011;68949;53.176;18.088;2023-04-05T04:18:57;13.50;;;4.70;;
79487;SDS011;68949;53.176;18.088;2023-04-05T04:21:42;16.40;;;5.70;;
79487;SDS011;68949;53.176;18.088;2023-04-05T04:24:20;14.70;;;5.10;;
79487;SDS011;68949;53.176;18.088;2023-04-05T04:27:05;12.90;;;4.30;;
79487;SDS011;68949;53.176;18.088;2023-04-05T04:34:57;8.30;;;2.70;;
79487;SDS011;68949;53.176;18.088;2023-04-05T04:37:35;10.20;;;2.90;;
79487;SDS011;68949;53.176;18.088;2023-04-05T04:40:43;10.40;;;3.00;;
79487;SDS011;68949;53.176;18.088;2023-04-05T04:43:27;8.00;;;2.70;;
79487;SDS011;68949;53.176;18.088;2023-04-05T04:46:13;7.40;;;2.40;;
79487;SDS011;68949;53.176;18.088;2023-04-05T04:49:02;9.00;;;2.80;;
79487;SDS011;68949;53.176;18.088;2023-04-05T04:51:32;9.20;;;3.00;;
79487;SDS011;68949;53.176;18.088;2023-04-05T04:53:59;7.20;;;2.00;;
79487;SDS011;68949;53.176;18.088;2023-04-05T04:56:26;10.30;;;2.10;;
79487;SDS011;68949;53.176;18.088;2023-04-05T04:58:54;7.00;;;2.40;;
79487;SDS011;68949;53.176;18.088;2023-04-05T05:01:22;8.00;;;2.40;;
79487;SDS011;68949;53.176;18.088;2023-04-05T05:03:50;12.30;;;2.60;;
79487;SDS011;68949;53.176;18.088;2023-04-05T05:06:25;8.70;;;2.40;;
79487;SDS011;68949;53.176;18.088;2023-04-05T05:08:53;9.70;;;1.40;;
79487;SDS011;68949;53.176;18.088;2023-04-05T05:11:19;6.00;;;1.70;;
79487;SDS011;68949;53.176;18.088;2023-04-05T05:13:46;10.70;;;2.50;;
79487;SDS011;68949;53.176;18.088;2023-04-05T05:16:19;9.40;;;2.40;;
79487;SDS011;68949;53.176;18.088;2023-04-05T05:18:49;7.40;;;2.00;;
79487;SDS011;68949;53.176;18.088;2023-04-05T05:21:17;10.20;;;2.70;;
79487;SDS011;68949;53.176;18.088;2023-04-05T05:23:50;10.60;;;2.30;;
79487;SDS011;68949;53.176;18.088;2023-04-05T05:26:17;9.80;;;2.70;;
79487;SDS011;68949;53.176;18.088;2023-04-05T05:28:44;9.30;;;2.00;;
79487;SDS011;68949;53.176;18.088;2023-04-05T05:31:11;7.60;;;2.30;;
79487;SDS011;68949;53.176;18.088;2023-04-05T05:33:39;11.10;;;2.40;;
79487;SDS011;68949;53.176;18.088;2023-04-05T05:36:06;6.00;;;1.90;;
79487;SDS011;68949;53.176;18.088;2023-04-05T05:38:34;7.50;;;1.70;;
79487;SDS011;68949;53.176;18.088;2023-04-05T05:41:00;7.40;;;2.30;;
79487;SDS011;68949;53.176;18.088;2023-04-05T05:43:27;6.20;;;1.70;;
79487;SDS011;68949;53.176;18.088;2023-04-05T05:45:54;5.80;;;1.80;;
79487;SDS011;68949;53.176;18.088;2023-04-05T05:48:21;6.40;;;1.60;;
79487;SDS011;68949;53.176;18.088;2023-04-05T05:50:47;5.70;;;1.60;;
79487;SDS011;68949;53.176;18.088;2023-04-05T05:53:14;4.30;;;1.40;;
79487;SDS011;68949;53.176;18.088;2023-04-05T05:55:41;5.90;;;1.60;;
79487;SDS011;68949;53.176;18.088;2023-04-05T05:58:08;6.90;;;1.60;;
79487;SDS011;68949;53.176;18.088;2023-04-05T06:00:35;5.70;;;1.60;;
79487;SDS011;68949;53.176;18.088;2023-04-05T06:03:01;4.80;;;1.50;;
79487;SDS011;68949;53.176;18.088;2023-04-05T06:05:29;6.30;;;1.40;;
79487;SDS011;68949;53.176;18.088;2023-04-05T06:07:57;5.60;;;1.30;;
79487;SDS011;68949;53.176;18.088;2023-04-05T06:10:23;5.90;;;1.50;;
79487;SDS011;68949;53.176;18.088;2023-04-05T06:12:50;6.20;;;1.40;;
79487;SDS011;68949;53.176;18.088;2023-04-05T06:15:17;6.00;;;1.90;;
79487;SDS011;68949;53.176;18.088;2023-04-05T06:17:44;6.60;;;2.20;;
79487;SDS011;68949;53.176;18.088;2023-04-05T06:20:11;5.30;;;1.30;;
79487;SDS011;68949;53.176;18.088;2023-04-05T06:22:38;5.10;;;1.30;;
79487;SDS011;68949;53.176;18.088;2023-04-05T06:25:07;6.00;;;1.70;;
79487;SDS011;68949;53.176;18.088;2023-04-05T06:27:34;6.00;;;1.60;;
79487;SDS011;68949;53.176;18.088;2023-04-05T06:30:02;5.20;;;1.50;;
79487;SDS011;68949;53.176;18.088;2023-04-05T06:32:29;5.70;;;1.40;;
79487;SDS011;68949;53.176;18.088;2023-04-05T06:34:56;7.10;;;2.30;;
79487;SDS011;68949;53.176;18.088;2023-04-05T06:37:22;7.30;;;1.60;;
79487;SDS011;68949;53.176;18.088;2023-04-05T06:39:49;7.40;;;1.70;;
79487;SDS011;68949;53.176;18.088;2023-04-05T06:42:16;4.00;;;1.40;;
79487;SDS011;68949;53.176;18.088;2023-04-05T06:44:44;5.80;;;1.40;;
79487;SDS011;68949;53.176;18.088;2023-04-05T06:47:10;5.90;;;1.20;;
79487;SDS011;68949;53.176;18.088;2023-04-05T06:49:37;5.90;;;1.50;;
79487;SDS011;68949;53.176;18.088;2023-04-05T06:52:04;5.70;;;1.40;;
79487;SDS011;68949;53.176;18.088;2023-04-05T06:54:32;6.60;;;1.40;;
79487;SDS011;68949;53.176;18.088;2023-04-05T06:56:59;6.00;;;1.40;;
79487;SDS011;68949;53.176;18.088;2023-04-05T06:59:27;5.90;;;1.60;;
79487;SDS011;68949;53.176;18.088;2023-04-05T07:01:55;4.60;;;1.10;;
79487;SDS011;68949;53.176;18.088;2023-04-05T07:04:22;4.40;;;1.40;;
79487;SDS011;68949;53.176;18.088;2023-04-05T07:06:48;3.80;;;0.80;;
79487;SDS011;68949;53.176;18.088;2023-04-05T07:09:18;4.80;;;1.10;;
79487;SDS011;68949;53.176;18.088;2023-04-05T07:11:46;5.80;;;1.00;;
79487;SDS011;68949;53.176;18.088;2023-04-05T07:14:12;4.30;;;0.70;;
79487;SDS011;68949;53.176;18.088;2023-04-05T07:16:39;3.70;;;0.70;;
79487;SDS011;68949;53.176;18.088;2023-04-05T07:19:05;4.00;;;0.70;;
79487;SDS011;68949;53.176;18.088;2023-04-05T07:21:32;5.00;;;0.80;;
79487;SDS011;68949;53.176;18.088;2023-04-05T07:24:00;4.10;;;1.10;;
79487;SDS011;68949;53.176;18.088;2023-04-05T07:26:28;3.30;;;0.60;;
79487;SDS011;68949;53.176;18.088;2023-04-05T07:28:55;2.40;;;0.30;;
79487;SDS011;68949;53.176;18.088;2023-04-05T07:31:21;3.20;;;0.50;;
79487;SDS011;68949;53.176;18.088;2023-04-05T07:33:48;4.40;;;0.80;;
79487;SDS011;68949;53.176;18.088;2023-04-05T07:36:15;2.60;;;0.40;;
79487;SDS011;68949;53.176;18.088;2023-04-05T07:38:42;2.40;;;0.30;;
79487;SDS011;68949;53.176;18.088;2023-04-05T07:41:10;2.90;;;0.40;;
79487;SDS011;68949;53.176;18.088;2023-04-05T07:43:37;4.60;;;0.40;;
79487;SDS011;68949;53.176;18.088;2023-04-05T07:46:04;1.60;;;0.20;;
79487;SDS011;68949;53.176;18.088;2023-04-05T07:48:31;3.50;;;0.40;;
79487;SDS011;68949;53.176;18.088;2023-04-05T07:51:05;2.60;;;0.30;;
79487;SDS011;68949;53.176;18.088;2023-04-05T07:53:35;1.90;;;0.40;;
79487;SDS011;68949;53.176;18.088;2023-04-05T07:56:04;2.00;;;0.30;;
79487;SDS011;68949;53.176;18.088;2023-04-05T07:58:32;3.20;;;0.50;;
79487;SDS011;68949;53.176;18.088;2023-04-05T08:01:03;2.80;;;0.50;;
79487;SDS011;68949;53.176;18.088;2023-04-05T08:03:30;2.70;;;0.30;;
79487;SDS011;68949;53.176;18.088;2023-04-05T08:06:10;3.30;;;0.50;;
79487;SDS011;68949;53.176;18.088;2023-04-05T08:08:39;3.20;;;0.50;;
79487;SDS011;68949;53.176;18.088;2023-04-05T08:11:06;4.10;;;0.50;;
79487;SDS011;68949;53.176;18.088;2023-04-05T08:13:33;2.90;;;0.40;;
79487;SDS011;68949;53.176;18.088;2023-04-05T08:16:00;4.70;;;0.70;;
79487;SDS011;68949;53.176;18.088;2023-04-05T08:18:27;3.60;;;0.60;;
79487;SDS011;68949;53.176;18.088;2023-04-05T08:20:55;2.90;;;0.70;;
79487;SDS011;68949;53.176;18.088;2023-04-05T08:23:22;4.70;;;0.80;;
79487;SDS011;68949;53.176;18.088;2023-04-05T08:25:49;4.30;;;0.60;;
79487;SDS011;68949;53.176;18.088;2023-04-05T08:28:16;2.80;;;0.50;;
79487;SDS011;68949;53.176;18.088;2023-04-05T08:30:43;3.20;;;0.60;;
79487;SDS011;68949;53.176;18.088;2023-04-05T08:33:11;1.90;;;0.40;;
79487;SDS011;68949;53.176;18.088;2023-04-05T08:35:39;2.80;;;0.30;;
79487;SDS011;68949;53.176;18.088;2023-04-05T08:38:06;3.10;;;0.60;;
79487;SDS011;68949;53.176;18.088;2023-04-05T08:40:43;4.90;;;0.70;;
79487;SDS011;68949;53.176;18.088;2023-04-05T08:43:17;2.80;;;0.60;;
79487;SDS011;68949;53.176;18.088;2023-04-05T08:45:57;3.30;;;0.80;;
79487;SDS011;68949;53.176;18.088;2023-04-05T08:48:25;4.90;;;0.90;;
79487;SDS011;68949;53.176;18.088;2023-04-05T08:50:56;5.20;;;0.90;;
79487;SDS011;68949;53.176;18.088;2023-04-05T08:53:23;3.90;;;0.90;;
79487;SDS011;68949;53.176;18.088;2023-04-05T08:55:51;4.00;;;1.10;;
79487;SDS011;68949;53.176;18.088;2023-04-05T08:58:26;3.90;;;1.30;;
79487;SDS011;68949;53.176;18.088;2023-04-05T09:00:54;3.30;;;0.80;;
79487;SDS011;68949;53.176;18.088;2023-04-05T09:03:27;2.90;;;0.70;;
79487;SDS011;68949;53.176;18.088;2023-04-05T09:06:04;4.40;;;1.00;;
79487;SDS011;68949;53.176;18.088;2023-04-05T09:08:37;3.90;;;0.90;;
79487;SDS011;68949;53.176;18.088;2023-04-05T09:11:04;5.70;;;1.30;;
79487;SDS011;68949;53.176;18.088;2023-04-05T09:13:31;3.70;;;1.00;;
79487;SDS011;68949;53.176;18.088;2023-04-05T09:16:00;5.40;;;0.90;;
79487;SDS011;68949;53.176;18.088;2023-04-05T09:18:28;3.10;;;0.80;;
79487;SDS011;68949;53.176;18.088;2023-04-05T09:21:00;4.10;;;0.90;;
79487;SDS011;68949;53.176;18.088;2023-04-05T09:23:29;6.60;;;1.70;;
79487;SDS011;68949;53.176;18.088;2023-04-05T09:25:55;3.60;;;0.80;;
79487;SDS011;68949;53.176;18.088;2023-04-05T09:28:22;3.50;;;0.80;;
79487;SDS011;68949;53.176;18.088;2023-04-05T09:31:05;3.20;;;0.70;;
79487;SDS011;68949;53.176;18.088;2023-04-05T09:33:32;5.60;;;1.10;;
79487;SDS011;68949;53.176;18.088;2023-04-05T09:35:59;5.00;;;1.20;;
79487;SDS011;68949;53.176;18.088;2023-04-05T09:38:43;3.80;;;1.10;;
79487;SDS011;68949;53.176;18.088;2023-04-05T09:41:11;3.60;;;0.70;;
79487;SDS011;68949;53.176;18.088;2023-04-05T09:43:38;3.70;;;1.20;;
79487;SDS011;68949;53.176;18.088;2023-04-05T09:46:14;4.50;;;1.00;;
79487;SDS011;68949;53.176;18.088;2023-04-05T09:48:56;3.80;;;0.80;;
79487;SDS011;68949;53.176;18.088;2023-04-05T09:51:31;5.00;;;0.70;;
79487;SDS011;68949;53.176;18.088;2023-04-05T09:54:08;3.90;;;0.80;;
79487;SDS011;68949;53.176;18.088;2023-04-05T09:56:38;4.10;;;0.60;;
79487;SDS011;68949;53.176;18.088;2023-04-05T09:59:08;4.90;;;0.90;;
79487;SDS011;68949;53.176;18.088;2023-04-05T10:01:38;3.10;;;0.90;;
79487;SDS011;68949;53.176;18.088;2023-04-05T10:04:09;4.40;;;0.90;;
79487;SDS011;68949;53.176;18.088;2023-04-05T10:06:42;4.00;;;0.80;;
79487;SDS011;68949;53.176;18.088;2023-04-05T10:09:10;2.90;;;0.90;;
79487;SDS011;68949;53.176;18.088;2023-04-05T10:11:37;5.20;;;0.90;;
79487;SDS011;68949;53.176;18.088;2023-04-05T10:14:06;4.50;;;0.70;;
79487;SDS011;68949;53.176;18.088;2023-04-05T10:19:44;3.00;;;0.70;;
79487;SDS011;68949;53.176;18.088;2023-04-05T10:22:35;4.70;;;0.60;;
79487;SDS011;68949;53.176;18.088;2023-04-05T10:28:11;4.60;;;0.70;;
79487;SDS011;68949;53.176;18.088;2023-04-05T10:33:44;2.50;;;0.60;;
79487;SDS011;68949;53.176;18.088;2023-04-05T10:39:28;4.00;;;0.60;;
79487;SDS011;68949;53.176;18.088;2023-04-05T10:42:35;3.20;;;0.80;;
79487;SDS011;68949;53.176;18.088;2023-04-05T10:45:07;3.80;;;0.60;;
79487;SDS011;68949;53.176;18.088;2023-04-05T10:47:55;4.10;;;0.70;;
79487;SDS011;68949;53.176;18.088;2023-04-05T10:50:24;3.00;;;0.50;;
79487;SDS011;68949;53.176;18.088;2023-04-05T10:52:51;3.40;;;1.10;;
79487;SDS011;68949;53.176;18.088;2023-04-05T10:55:21;3.60;;;0.80;;
79487;SDS011;68949;53.176;18.088;2023-04-05T10:57:48;4.00;;;0.80;;
79487;SDS011;68949;53.176;18.088;2023-04-05T11:00:16;3.80;;;0.70;;
79487;SDS011;68949;53.176;18.088;2023-04-05T11:02:44;3.90;;;0.90;;
79487;SDS011;68949;53.176;18.088;2023-04-05T11:05:31;3.60;;;1.00;;
79487;SDS011;68949;53.176;18.088;2023-04-05T11:08:06;5.30;;;1.10;;
79487;SDS011;68949;53.176;18.088;2023-04-05T11:10:35;2.90;;;0.60;;
79487;SDS011;68949;53.176;18.088;2023-04-05T11:13:05;6.40;;;1.00;;
79487;SDS011;68949;53.176;18.088;2023-04-05T11:15:33;3.50;;;0.70;;
79487;SDS011;68949;53.176;18.088;2023-04-05T11:23:16;6.00;;;1.00;;
79487;SDS011;68949;53.176;18.088;2023-04-05T11:25:50;4.50;;;1.10;;
79487;SDS011;68949;53.176;18.088;2023-04-05T11:28:23;3.90;;;0.80;;
79487;SDS011;68949;53.176;18.088;2023-04-05T11:31:11;3.40;;;0.80;;
79487;SDS011;68949;53.176;18.088;2023-04-05T11:36:12;5.20;;;1.30;;
79487;SDS011;68949;53.176;18.088;2023-04-05T11:41:58;3.60;;;0.90;;
79487;SDS011;68949;53.176;18.088;2023-04-05T11:47:09;3.90;;;1.00;;
79487;SDS011;68949;53.176;18.088;2023-04-05T11:49:37;4.70;;;1.10;;
79487;SDS011;68949;53.176;18.088;2023-04-05T11:52:10;6.00;;;0.90;;
79487;SDS011;68949;53.176;18.088;2023-04-05T11:54:41;3.80;;;1.00;;
79487;SDS011;68949;53.176;18.088;2023-04-05T11:57:14;4.60;;;1.20;;
79487;SDS011;68949;53.176;18.088;2023-04-05T11:59:44;3.50;;;1.30;;
79487;SDS011;68949;53.176;18.088;2023-04-05T12:02:11;4.50;;;0.80;;
79487;SDS011;68949;53.176;18.088;2023-04-05T12:04:38;3.40;;;0.90;;
79487;SDS011;68949;53.176;18.088;2023-04-05T12:07:16;6.70;;;0.90;;
79487;SDS011;68949;53.176;18.088;2023-04-05T12:10:09;3.50;;;1.10;;
79487;SDS011;68949;53.176;18.088;2023-04-05T12:12:41;4.40;;;1.40;;
79487;SDS011;68949;53.176;18.088;2023-04-05T12:15:11;5.70;;;1.10;;
79487;SDS011;68949;53.176;18.088;2023-04-05T12:17:46;3.90;;;1.00;;
79487;SDS011;68949;53.176;18.088;2023-04-05T12:20:22;5.00;;;1.10;;
79487;SDS011;68949;53.176;18.088;2023-04-05T12:22:52;3.70;;;0.90;;
79487;SDS011;68949;53.176;18.088;2023-04-05T12:25:21;4.20;;;1.40;;
79487;SDS011;68949;53.176;18.088;2023-04-05T12:27:49;3.40;;;0.90;;
79487;SDS011;68949;53.176;18.088;2023-04-05T12:30:21;4.00;;;0.90;;
79487;SDS011;68949;53.176;18.088;2023-04-05T12:32:51;3.90;;;1.00;;
79487;SDS011;68949;53.176;18.088;2023-04-05T12:35:20;3.90;;;1.00;;
79487;SDS011;68949;53.176;18.088;2023-04-05T12:37:49;4.50;;;1.10;;
79487;SDS011;68949;53.176;18.088;2023-04-05T12:40:21;4.10;;;1.10;;
79487;SDS011;68949;53.176;18.088;2023-04-05T12:42:49;3.80;;;0.80;;
79487;SDS011;68949;53.176;18.088;2023-04-05T12:45:16;5.00;;;0.90;;
79487;SDS011;68949;53.176;18.088;2023-04-05T12:47:57;4.40;;;1.00;;
79487;SDS011;68949;53.176;18.088;2023-04-05T12:50:30;3.70;;;1.00;;
79487;SDS011;68949;53.176;18.088;2023-04-05T12:53:00;4.10;;;1.20;;
79487;SDS011;68949;53.176;18.088;2023-04-05T12:55:37;6.20;;;1.60;;
79487;SDS011;68949;53.176;18.088;2023-04-05T12:58:10;4.40;;;1.10;;
79487;SDS011;68949;53.176;18.088;2023-04-05T13:00:37;6.00;;;1.60;;
79487;SDS011;68949;53.176;18.088;2023-04-05T13:03:04;4.90;;;1.40;;
79487;SDS011;68949;53.176;18.088;2023-04-05T13:05:30;6.30;;;1.30;;
79487;SDS011;68949;53.176;18.088;2023-04-05T13:07:57;4.50;;;1.40;;
79487;SDS011;68949;53.176;18.088;2023-04-05T13:10:25;6.10;;;1.30;;
79487;SDS011;68949;53.176;18.088;2023-04-05T13:12:52;4.20;;;1.20;;
79487;SDS011;68949;53.176;18.088;2023-04-05T13:15:18;4.50;;;1.40;;
79487;SDS011;68949;53.176;18.088;2023-04-05T13:17:45;5.00;;;1.10;;
79487;SDS011;68949;53.176;18.088;2023-04-05T13:20:16;4.20;;;0.90;;
79487;SDS011;68949;53.176;18.088;2023-04-05T13:22:44;4.00;;;1.10;;
79487;SDS011;68949;53.176;18.088;2023-04-05T13:25:13;4.60;;;1.30;;
79487;SDS011;68949;53.176;18.088;2023-04-05T13:27:41;3.90;;;1.20;;
79487;SDS011;68949;53.176;18.088;2023-04-05T13:30:09;5.20;;;1.30;;
79487;SDS011;68949;53.176;18.088;2023-04-05T13:32:36;4.50;;;1.10;;
79487;SDS011;68949;53.176;18.088;2023-04-05T13:35:03;4.30;;;1.00;;
79487;SDS011;68949;53.176;18.088;2023-04-05T13:37:31;3.40;;;1.10;;
79487;SDS011;68949;53.176;18.088;2023-04-05T13:39:57;5.50;;;1.40;;
79487;SDS011;68949;53.176;18.088;2023-04-05T13:42:24;3.90;;;1.00;;
79487;SDS011;68949;53.176;18.088;2023-04-05T13:44:51;4.30;;;1.40;;
79487;SDS011;68949;53.176;18.088;2023-04-05T13:47:17;4.60;;;1.10;;
79487;SDS011;68949;53.176;18.088;2023-04-05T13:49:45;4.70;;;1.30;;
79487;SDS011;68949;53.176;18.088;2023-04-05T13:52:12;3.70;;;1.10;;
79487;SDS011;68949;53.176;18.088;2023-04-05T13:54:38;4.90;;;1.30;;
79487;SDS011;68949;53.176;18.088;2023-04-05T13:57:05;3.90;;;1.00;;
79487;SDS011;68949;53.176;18.088;2023-04-05T13:59:32;5.10;;;1.00;;
79487;SDS011;68949;53.176;18.088;2023-04-05T14:01:58;6.60;;;1.30;;
79487;SDS011;68949;53.176;18.088;2023-04-05T14:04:25;6.40;;;1.20;;
79487;SDS011;68949;53.176;18.088;2023-04-05T14:06:53;3.80;;;1.00;;
79487;SDS011;68949;53.176;18.088;2023-04-05T14:09:20;4.80;;;1.40;;
79487;SDS011;68949;53.176;18.088;2023-04-05T14:11:46;4.70;;;0.90;;
79487;SDS011;68949;53.176;18.088;2023-04-05T14:14:13;4.20;;;1.10;;
79487;SDS011;68949;53.176;18.088;2023-04-05T14:16:39;4.90;;;1.10;;
79487;SDS011;68949;53.176;18.088;2023-04-05T14:19:06;3.60;;;0.70;;
79487;SDS011;68949;53.176;18.088;2023-04-05T14:21:33;4.40;;;0.80;;
79487;SDS011;68949;53.176;18.088;2023-04-05T14:23:59;5.60;;;1.30;;
79487;SDS011;68949;53.176;18.088;2023-04-05T14:26:26;4.30;;;1.40;;
79487;SDS011;68949;53.176;18.088;2023-04-05T14:28:53;5.40;;;1.40;;
79487;SDS011;68949;53.176;18.088;2023-04-05T14:31:22;5.20;;;1.20;;
79487;SDS011;68949;53.176;18.088;2023-04-05T14:33:51;3.60;;;0.90;;
79487;SDS011;68949;53.176;18.088;2023-04-05T14:36:18;3.70;;;0.80;;
79487;SDS011;68949;53.176;18.088;2023-04-05T14:38:44;3.70;;;1.10;;
79487;SDS011;68949;53.176;18.088;2023-04-05T14:41:11;6.40;;;1.10;;
79487;SDS011;68949;53.176;18.088;2023-04-05T14:43:38;5.70;;;1.50;;
79487;SDS011;68949;53.176;18.088;2023-04-05T14:46:05;4.40;;;1.20;;
79487;SDS011;68949;53.176;18.088;2023-04-05T14:48:31;6.50;;;1.50;;
79487;SDS011;68949;53.176;18.088;2023-04-05T14:50:59;4.90;;;1.40;;
79487;SDS011;68949;53.176;18.088;2023-04-05T14:53:26;4.50;;;1.40;;
79487;SDS011;68949;53.176;18.088;2023-04-05T14:55:53;4.70;;;1.20;;
79487;SDS011;68949;53.176;18.088;2023-04-05T14:58:19;6.70;;;1.70;;
79487;SDS011;68949;53.176;18.088;2023-04-05T15:00:47;5.00;;;1.40;;
79487;SDS011;68949;53.176;18.088;2023-04-05T15:03:15;7.10;;;1.60;;
79487;SDS011;68949;53.176;18.088;2023-04-05T15:05:45;4.00;;;1.50;;
79487;SDS011;68949;53.176;18.088;2023-04-05T15:08:13;4.60;;;1.30;;
79487;SDS011;68949;53.176;18.088;2023-04-05T15:10:41;4.90;;;1.20;;
79487;SDS011;68949;53.176;18.088;2023-04-05T15:13:08;5.20;;;1.40;;
79487;SDS011;68949;53.176;18.088;2023-04-05T15:15:36;4.50;;;1.30;;
79487;SDS011;68949;53.176;18.088;2023-04-05T15:18:04;6.40;;;1.40;;
79487;SDS011;68949;53.176;18.088;2023-04-05T15:20:31;4.90;;;1.20;;
79487;SDS011;68949;53.176;18.088;2023-04-05T15:22:58;6.30;;;1.80;;
79487;SDS011;68949;53.176;18.088;2023-04-05T15:25:25;6.40;;;1.60;;